Terminal Aerodrome Forecast
Issued by NWS

Home | Current Version | Previous Version | Text Only | Print | Product List | Glossary On
Versions: 1 2 3 4 5 6 7 8 9 10 11 12 13 14 15 16 17 18 19 20 21
000
FTUS41 KGYX 230520
TAFHIE
TAF
KHIE 230520Z 2306/2406 00000KT P6SM BKN070
     FM230700 00000KT P6SM VCSH BKN060
      TEMPO 2308/2312 3SM SHRA BR OVC035
     FM231300 21004KT P6SM OVC045
     FM231600 21008G14KT 6SM -SHRA BKN050 PROB30 2316/2322 2SM TSRA
      OVC040CB
     FM240100 21008KT 4SM BR OVC012=

USA.gov is the U.S. government's official web portal to all federal, state and local government web resources and services.